createdAt,value
2019-01-14T00:00:55.423Z,7.80
2019-01-14T00:03:23.592Z,7.90
2019-01-14T00:05:51.464Z,7.90
2019-01-14T00:08:19.337Z,8.00
2019-01-14T00:10:47.353Z,8.00
2019-01-14T00:13:15.083Z,8.00
2019-01-14T00:15:42.920Z,8.00
2019-01-14T00:18:11.018Z,8.10
2019-01-14T00:20:39.274Z,8.10
2019-01-14T00:23:07.358Z,8.00
2019-01-14T00:25:36.012Z,7.90
2019-01-14T00:28:05.268Z,7.90
2019-01-14T00:30:33.378Z,7.80
2019-01-14T00:33:01.129Z,7.70
2019-01-14T00:35:29.490Z,7.80
2019-01-14T00:37:58.007Z,7.80
2019-01-14T00:40:25.759Z,7.80
2019-01-14T00:42:54.922Z,7.80
2019-01-14T00:45:22.696Z,7.60
2019-01-14T00:47:50.483Z,7.70
2019-01-14T00:50:18.351Z,7.70
2019-01-14T00:52:46.144Z,7.80
2019-01-14T00:55:15.107Z,7.80
2019-01-14T00:57:43.176Z,7.80
2019-01-14T01:00:15.019Z,7.80
2019-01-14T01:02:42.888Z,7.70
2019-01-14T01:05:10.668Z,7.70
2019-01-14T01:07:38.793Z,7.70
2019-01-14T01:10:08.931Z,7.70
2019-01-14T01:12:36.753Z,7.60
2019-01-14T01:15:05.642Z,7.70
2019-01-14T01:17:33.676Z,7.70
2019-01-14T01:20:01.478Z,7.70
2019-01-14T01:22:29.273Z,7.80
2019-01-14T01:24:57.057Z,7.80
2019-01-14T01:27:24.820Z,7.70
2019-01-14T01:29:52.553Z,7.70
2019-01-14T01:32:21.847Z,7.70
2019-01-14T01:34:49.489Z,7.70
2019-01-14T01:37:17.368Z,7.70
2019-01-14T01:39:45.447Z,7.60
2019-01-14T01:42:13.540Z,7.60
2019-01-14T01:44:41.318Z,7.50
2019-01-14T01:47:09.458Z,7.30
2019-01-14T01:49:37.967Z,7.20
2019-01-14T01:52:05.766Z,7.10
2019-01-14T01:54:33.866Z,7.00
2019-01-14T01:57:03.880Z,7.00
2019-01-14T01:59:31.657Z,6.90
2019-01-14T02:01:59.875Z,6.90
2019-01-14T02:04:27.628Z,7.00
2019-01-14T02:06:55.508Z,7.00
2019-01-14T02:09:23.618Z,7.00
2019-01-14T02:11:51.376Z,7.10
2019-01-14T02:14:19.928Z,7.10
2019-01-14T02:16:48.195Z,7.20
2019-01-14T02:19:15.984Z,7.20
2019-01-14T02:21:43.663Z,7.30
2019-01-14T02:24:11.464Z,7.30
2019-01-14T02:26:39.249Z,7.30
2019-01-14T02:29:07.682Z,7.30
2019-01-14T02:31:35.745Z,7.30
2019-01-14T02:34:03.837Z,7.40
2019-01-14T02:36:32.293Z,7.40
2019-01-14T02:39:00.456Z,7.40
2019-01-14T02:41:28.218Z,7.40
2019-01-14T02:43:56.456Z,7.40
2019-01-14T02:46:24.180Z,7.30
2019-01-14T02:48:52.037Z,7.10
2019-01-14T02:51:19.767Z,7.00
2019-01-14T02:53:48.284Z,6.90
2019-01-14T02:56:16.106Z,6.80
2019-01-14T02:58:43.919Z,6.80
2019-01-14T03:01:11.723Z,6.70
2019-01-14T03:03:39.494Z,6.70
2019-01-14T03:06:07.269Z,6.70
2019-01-14T03:08:35.073Z,6.80
2019-01-14T03:11:03.171Z,6.80
2019-01-14T03:13:30.977Z,6.80
2019-01-14T03:15:59.061Z,7.00
2019-01-14T03:18:26.874Z,7.10
2019-01-14T03:20:55.000Z,7.20
2019-01-14T03:23:23.246Z,7.30
2019-01-14T03:25:58.136Z,7.30
2019-01-14T03:28:21.417Z,7.40
2019-01-14T03:30:49.147Z,7.40
2019-01-14T03:33:16.981Z,7.50
2019-01-14T03:35:44.715Z,7.50
2019-01-14T03:38:12.470Z,7.50
2019-01-14T03:40:41.306Z,7.50
2019-01-14T03:43:09.079Z,7.50
2019-01-14T03:45:36.864Z,7.50
2019-01-14T03:48:05.780Z,7.50
2019-01-14T03:50:34.659Z,7.50
2019-01-14T03:53:02.439Z,7.50
2019-01-14T03:55:30.756Z,7.60
2019-01-14T03:57:58.496Z,7.70
2019-01-14T04:00:26.647Z,7.60
2019-01-14T04:02:55.577Z,7.70
2019-01-14T04:05:23.334Z,7.70
2019-01-14T04:07:51.074Z,7.70
2019-01-14T04:10:24.130Z,7.70
2019-01-14T04:12:51.955Z,7.70
2019-01-14T04:15:20.345Z,7.70
2019-01-14T04:17:48.317Z,7.70
2019-01-14T04:20:17.702Z,7.70
2019-01-14T04:22:46.187Z,7.70
2019-01-14T04:25:14.630Z,7.70
2019-01-14T04:27:42.363Z,7.70
2019-01-14T04:32:33.562Z,7.70
2019-01-14T04:35:01.703Z,7.70
2019-01-14T04:37:29.491Z,7.60
2019-01-14T04:39:57.245Z,7.50
2019-01-14T04:42:24.998Z,7.30
2019-01-14T04:44:53.152Z,7.10
2019-01-14T04:47:20.921Z,7.00
2019-01-14T04:49:48.994Z,6.80
2019-01-14T04:52:17.046Z,6.70
2019-01-14T04:54:44.786Z,6.60
2019-01-14T04:57:12.598Z,6.60
2019-01-14T04:59:40.491Z,6.50
2019-01-14T05:02:08.323Z,6.50
2019-01-14T05:04:36.498Z,6.50
2019-01-14T05:07:04.683Z,6.60
2019-01-14T05:09:32.748Z,6.70
2019-01-14T05:12:00.531Z,6.70
2019-01-14T05:14:28.565Z,6.70
2019-01-14T05:16:56.371Z,6.70
2019-01-14T05:19:24.820Z,6.80
2019-01-14T05:21:52.582Z,6.70
2019-01-14T05:24:20.414Z,6.80
2019-01-14T05:26:48.205Z,6.90
2019-01-14T05:29:16.363Z,6.90
2019-01-14T05:31:44.252Z,7.00
2019-01-14T05:34:12.018Z,7.10
2019-01-14T05:36:40.178Z,7.10
2019-01-14T05:39:08.599Z,7.20
2019-01-14T05:41:36.989Z,7.10
2019-01-14T05:44:05.121Z,7.10
2019-01-14T05:46:32.969Z,6.90
2019-01-14T05:49:01.365Z,6.80
2019-01-14T05:51:30.282Z,6.60
2019-01-14T05:53:58.392Z,6.50
2019-01-14T05:56:26.228Z,6.30
2019-01-14T05:58:54.485Z,6.20
2019-01-14T06:01:22.361Z,6.10
2019-01-14T06:03:50.503Z,6.00
2019-01-14T06:06:18.392Z,6.00
2019-01-14T06:08:46.162Z,5.90
2019-01-14T06:11:13.995Z,5.90
2019-01-14T06:13:41.754Z,6.00
2019-01-14T06:16:09.926Z,6.20
2019-01-14T06:18:37.668Z,6.30
2019-01-14T06:21:05.510Z,6.30
2019-01-14T06:23:33.667Z,6.40
2019-01-14T06:26:02.256Z,6.50
2019-01-14T06:28:30.000Z,6.70
2019-01-14T06:30:58.088Z,6.80
2019-01-14T06:33:25.998Z,6.90
2019-01-14T06:35:53.864Z,7.00
2019-01-14T06:38:21.646Z,7.00
2019-01-14T06:40:49.859Z,7.10
2019-01-14T06:43:17.683Z,7.10
2019-01-14T06:45:45.425Z,7.00
2019-01-14T06:48:13.307Z,7.00
2019-01-14T06:50:41.392Z,6.90
2019-01-14T06:53:09.852Z,6.80
2019-01-14T06:55:37.603Z,6.60
2019-01-14T06:58:05.712Z,6.60
2019-01-14T07:00:33.480Z,6.50
2019-01-14T07:03:01.711Z,6.50
2019-01-14T07:05:29.462Z,6.50
2019-01-14T07:07:59.728Z,6.40
2019-01-14T07:10:29.054Z,6.40
2019-01-14T07:12:56.805Z,6.40
2019-01-14T07:15:24.688Z,6.20
2019-01-14T07:17:52.466Z,6.10
2019-01-14T07:20:20.686Z,6.10
2019-01-14T07:22:48.731Z,6.10
2019-01-14T07:25:16.677Z,6.20
2019-01-14T07:27:44.461Z,6.30
2019-01-14T07:30:15.092Z,6.40
2019-01-14T07:32:43.069Z,6.40
2019-01-14T07:35:11.412Z,6.60
2019-01-14T07:37:39.519Z,6.70
2019-01-14T07:40:09.249Z,6.80
2019-01-14T07:42:37.034Z,6.90
2019-01-14T07:45:05.764Z,6.90
2019-01-14T07:47:34.010Z,7.00
2019-01-14T07:50:01.864Z,7.10
2019-01-14T07:52:29.757Z,7.10
2019-01-14T07:54:57.853Z,7.10
2019-01-14T07:57:25.914Z,7.10
2019-01-14T07:59:54.114Z,7.20
2019-01-14T08:02:21.929Z,7.10
2019-01-14T08:04:50.199Z,7.10
2019-01-14T08:07:18.516Z,7.10
2019-01-14T08:09:46.666Z,7.10
2019-01-14T08:12:14.454Z,7.00
2019-01-14T08:14:42.791Z,7.00
2019-01-14T08:17:10.621Z,7.00
2019-01-14T08:19:38.391Z,7.20
2019-01-14T08:22:06.190Z,7.20
2019-01-14T08:24:34.304Z,7.30
2019-01-14T08:27:02.092Z,7.30
2019-01-14T08:29:29.943Z,7.20
2019-01-14T08:31:57.788Z,7.10
2019-01-14T08:34:25.897Z,7.00
2019-01-14T08:37:00.567Z,6.90
2019-01-14T08:39:23.685Z,6.90
2019-01-14T08:41:54.924Z,6.90
2019-01-14T08:44:29.118Z,6.90
2019-01-14T08:46:56.868Z,7.00
2019-01-14T08:49:25.027Z,7.00
2019-01-14T08:51:53.110Z,7.10
2019-01-14T08:54:21.235Z,7.20
2019-01-14T08:56:49.055Z,7.20
2019-01-14T08:59:16.836Z,7.20
2019-01-14T09:01:44.943Z,7.10
2019-01-14T09:04:13.926Z,7.20
2019-01-14T09:06:41.747Z,7.20
2019-01-14T09:09:09.704Z,7.20
2019-01-14T09:11:37.442Z,7.20
2019-01-14T09:14:05.950Z,7.20
2019-01-14T09:16:33.895Z,7.00
2019-01-14T09:19:02.092Z,6.70
2019-01-14T09:21:30.275Z,6.60
2019-01-14T09:23:58.419Z,6.50
2019-01-14T09:26:26.092Z,6.60
2019-01-14T09:28:53.867Z,6.60
2019-01-14T09:31:23.722Z,6.50
2019-01-14T09:33:51.508Z,6.60
2019-01-14T09:36:19.620Z,6.70
2019-01-14T09:38:48.474Z,6.80
2019-01-14T09:41:16.244Z,6.90
2019-01-14T09:43:43.983Z,6.90
2019-01-14T09:46:11.785Z,6.90
2019-01-14T09:48:40.050Z,6.90
2019-01-14T09:51:08.295Z,6.90
2019-01-14T09:53:36.534Z,7.00
2019-01-14T09:56:04.722Z,7.20
2019-01-14T09:58:32.491Z,7.50
2019-01-14T10:01:00.259Z,8.10
2019-01-14T10:03:28.013Z,8.50
2019-01-14T10:05:55.816Z,8.80
2019-01-14T10:08:23.572Z,8.40
2019-01-14T10:10:51.368Z,8.00
2019-01-14T10:13:19.429Z,7.70
2019-01-14T10:15:47.172Z,7.50
2019-01-14T10:18:15.258Z,7.50
2019-01-14T10:20:43.012Z,7.80
2019-01-14T10:23:10.788Z,8.30
2019-01-14T10:25:38.862Z,8.50
2019-01-14T10:28:06.645Z,8.30
2019-01-14T10:30:35.844Z,8.50
2019-01-14T10:33:03.879Z,8.70
2019-01-14T10:35:31.745Z,9.20
2019-01-14T10:37:59.497Z,9.70
2019-01-14T10:40:27.343Z,9.70
2019-01-14T10:42:55.499Z,9.10
2019-01-14T10:45:23.609Z,8.70
2019-01-14T10:47:51.410Z,8.30
2019-01-14T10:50:20.341Z,8.30
2019-01-14T10:52:48.140Z,8.70
2019-01-14T10:55:15.963Z,9.30
2019-01-14T10:57:44.167Z,9.70
2019-01-14T11:00:17.370Z,10.10
2019-01-14T11:02:47.966Z,10.30
2019-01-14T11:05:18.425Z,10.30
2019-01-14T11:07:46.261Z,10.10
2019-01-14T11:10:14.512Z,9.70
2019-01-14T11:12:43.499Z,9.40
2019-01-14T11:15:12.385Z,9.10
2019-01-14T11:17:40.221Z,8.90
2019-01-14T11:20:12.182Z,8.90
2019-01-14T11:22:40.256Z,8.80
2019-01-14T11:25:08.163Z,8.70
2019-01-14T11:27:36.983Z,8.70
2019-01-14T11:30:07.127Z,8.70
2019-01-14T11:32:35.411Z,8.70
2019-01-14T11:35:03.790Z,8.60
2019-01-14T11:37:31.543Z,8.80
2019-01-14T11:40:00.022Z,9.10
2019-01-14T11:42:28.085Z,9.00
2019-01-14T11:44:55.880Z,8.50
2019-01-14T11:47:23.583Z,7.60
2019-01-14T11:49:51.360Z,7.00
2019-01-14T11:52:19.425Z,6.60
2019-01-14T11:54:48.459Z,6.40
2019-01-14T11:57:16.511Z,6.30
2019-01-14T11:59:44.351Z,6.10
2019-01-14T12:02:12.088Z,6.50
2019-01-14T12:04:39.823Z,7.30
2019-01-14T12:07:07.570Z,8.00
2019-01-14T12:09:35.310Z,8.70
2019-01-14T12:12:04.210Z,9.30
2019-01-14T12:14:31.838Z,9.60
2019-01-14T12:16:59.608Z,9.80
2019-01-14T12:19:27.340Z,10.10
2019-01-14T12:21:55.198Z,9.90
2019-01-14T12:24:22.927Z,9.70
2019-01-14T12:26:51.399Z,9.50
2019-01-14T12:29:19.227Z,9.70
2019-01-14T12:31:49.500Z,9.90
2019-01-14T12:34:17.232Z,10.20
2019-01-14T12:36:45.094Z,10.40
2019-01-14T12:39:19.285Z,10.40
2019-01-14T12:41:42.406Z,10.80
2019-01-14T12:44:10.196Z,10.80
2019-01-14T12:46:37.933Z,10.50
2019-01-14T12:49:05.841Z,9.50
2019-01-14T12:51:33.607Z,8.80
2019-01-14T12:54:01.625Z,8.30
2019-01-14T12:56:29.684Z,7.90
2019-01-14T12:58:57.789Z,7.80
2019-01-14T13:01:25.523Z,7.90
2019-01-14T13:03:56.037Z,7.90
2019-01-14T13:06:24.509Z,7.70
2019-01-14T13:08:52.262Z,7.50
2019-01-14T13:11:23.325Z,7.40
2019-01-14T13:13:50.255Z,7.30
2019-01-14T13:16:18.114Z,7.40
2019-01-14T13:18:45.826Z,7.50
2019-01-14T13:21:13.580Z,7.80
2019-01-14T13:23:41.500Z,8.10
2019-01-14T13:26:10.006Z,8.60
2019-01-14T13:28:37.763Z,9.10
2019-01-14T13:31:05.545Z,9.70
2019-01-14T13:33:33.310Z,10.10
2019-01-14T13:36:01.173Z,10.20
2019-01-14T13:38:28.930Z,10.40
2019-01-14T13:40:57.027Z,10.40
2019-01-14T13:43:24.809Z,10.80
2019-01-14T13:45:52.956Z,11.00
2019-01-14T13:48:20.790Z,10.60
2019-01-14T13:50:48.954Z,9.00
2019-01-14T13:53:17.107Z,8.00
2019-01-14T13:55:44.899Z,7.40
2019-01-14T13:58:12.635Z,7.10
2019-01-14T14:00:41.146Z,6.90
2019-01-14T14:03:08.891Z,6.80
2019-01-14T14:05:36.633Z,6.80
2019-01-14T14:08:04.404Z,6.90
2019-01-14T14:10:32.756Z,6.90
2019-01-14T14:13:00.543Z,6.90
2019-01-14T14:15:29.059Z,6.90
2019-01-14T14:17:57.710Z,6.90
2019-01-14T14:20:25.658Z,7.10
2019-01-14T14:22:53.412Z,7.20
2019-01-14T14:25:21.181Z,7.20
2019-01-14T14:27:50.039Z,7.10
2019-01-14T14:30:39.037Z,7.20
2019-01-14T14:33:06.888Z,7.20
2019-01-14T14:35:34.804Z,7.30
2019-01-14T14:38:03.400Z,7.30
2019-01-14T14:40:31.176Z,7.20
2019-01-14T14:42:59.319Z,7.30
2019-01-14T14:45:27.422Z,7.30
2019-01-14T14:47:55.712Z,7.30
2019-01-14T14:50:23.781Z,7.30
2019-01-14T14:52:51.937Z,7.30
2019-01-14T14:55:19.700Z,7.30
2019-01-14T14:57:47.569Z,7.30
2019-01-14T15:00:17.764Z,7.30
2019-01-14T15:02:46.160Z,7.20
2019-01-14T15:05:14.010Z,7.20
2019-01-14T15:07:41.891Z,7.20
2019-01-14T15:10:11.798Z,7.20
2019-01-14T15:12:40.270Z,7.10
2019-01-14T15:15:09.175Z,7.00
2019-01-14T15:17:36.983Z,7.00
2019-01-14T15:20:06.752Z,6.90
2019-01-14T15:22:34.569Z,6.80
2019-01-14T15:25:02.423Z,6.70
2019-01-14T15:27:30.235Z,6.70
2019-01-14T15:29:58.056Z,6.70
2019-01-14T15:32:26.443Z,6.60
2019-01-14T15:34:54.212Z,6.60
2019-01-14T15:37:22.016Z,6.60
2019-01-14T15:39:49.800Z,6.60
2019-01-14T15:42:17.871Z,6.60
2019-01-14T15:44:46.641Z,6.60
2019-01-14T15:47:14.376Z,6.60
2019-01-14T15:49:42.890Z,6.60
2019-01-14T15:52:11.198Z,6.60
2019-01-14T15:54:38.951Z,6.50
2019-01-14T15:57:06.723Z,6.50
2019-01-14T15:59:34.478Z,6.40
2019-01-14T16:02:02.619Z,6.30
2019-01-14T16:04:30.420Z,6.30
2019-01-14T16:06:58.754Z,6.20
2019-01-14T16:09:26.533Z,6.20
2019-01-14T16:11:55.016Z,6.10
2019-01-14T16:14:23.092Z,6.00
2019-01-14T16:16:50.865Z,5.90
2019-01-14T16:19:18.841Z,5.90
2019-01-14T16:21:46.637Z,5.80
2019-01-14T16:24:14.454Z,5.70
2019-01-14T16:26:42.253Z,5.70
2019-01-14T16:29:10.062Z,5.70
2019-01-14T16:31:37.943Z,5.80
2019-01-14T16:34:06.268Z,5.80
2019-01-14T16:36:34.051Z,5.80
2019-01-14T16:39:01.884Z,5.80
2019-01-14T16:41:29.648Z,5.80
2019-01-14T16:43:57.997Z,5.70
2019-01-14T16:46:25.795Z,5.60
2019-01-14T16:48:54.298Z,5.60
2019-01-14T16:51:22.599Z,5.50
2019-01-14T16:53:50.666Z,5.50
2019-01-14T16:56:18.861Z,5.50
2019-01-14T16:58:46.780Z,5.50
2019-01-14T17:01:15.229Z,5.50
2019-01-14T17:03:43.350Z,5.50
2019-01-14T17:06:11.171Z,5.60
2019-01-14T17:08:39.137Z,5.60
2019-01-14T17:11:07.862Z,5.60
2019-01-14T17:13:35.763Z,5.60
2019-01-14T17:16:03.615Z,5.50
2019-01-14T17:18:31.742Z,5.40
2019-01-14T17:20:59.507Z,5.40
2019-01-14T17:23:27.742Z,5.40
2019-01-14T17:25:55.507Z,5.40
2019-01-14T17:28:23.664Z,5.30
2019-01-14T17:30:51.778Z,5.30
2019-01-14T17:33:19.643Z,5.20
2019-01-14T17:35:48.123Z,5.20
2019-01-14T17:38:15.831Z,5.10
2019-01-14T17:40:44.287Z,5.10
2019-01-14T17:43:11.979Z,5.10
2019-01-14T17:45:40.152Z,5.00
2019-01-14T17:48:07.973Z,4.90
2019-01-14T17:50:36.070Z,4.90
2019-01-14T17:53:04.630Z,4.90
2019-01-14T17:55:32.429Z,5.00
2019-01-14T17:58:00.552Z,5.10
2019-01-14T18:00:28.679Z,5.20
2019-01-14T18:02:56.462Z,5.20
2019-01-14T18:05:24.274Z,5.20
2019-01-14T18:07:52.064Z,5.30
2019-01-14T18:10:20.645Z,5.30
2019-01-14T18:12:48.392Z,5.40
2019-01-14T18:15:16.302Z,5.40
2019-01-14T18:17:44.183Z,5.40
2019-01-14T18:20:14.560Z,5.40
2019-01-14T18:22:42.731Z,5.40
2019-01-14T18:25:10.768Z,5.40
2019-01-14T18:27:38.574Z,5.30
2019-01-14T18:30:12.283Z,5.20
2019-01-14T18:32:40.198Z,5.20
2019-01-14T18:35:07.985Z,5.20
2019-01-14T18:37:35.773Z,5.20
2019-01-14T18:40:05.300Z,5.20
2019-01-14T18:42:33.100Z,5.20
2019-01-14T18:45:00.939Z,5.30
2019-01-14T18:47:29.091Z,5.20
2019-01-14T18:49:57.130Z,5.20
2019-01-14T18:52:25.112Z,5.30
2019-01-14T18:54:53.067Z,5.40
2019-01-14T18:57:20.938Z,5.30
2019-01-14T18:59:48.800Z,5.30
2019-01-14T19:02:16.583Z,5.20
2019-01-14T19:04:44.539Z,5.10
2019-01-14T19:07:12.364Z,5.00
2019-01-14T19:09:40.227Z,5.00
2019-01-14T19:12:08.367Z,4.90
2019-01-14T19:14:37.528Z,4.90
2019-01-14T19:17:05.722Z,4.90
2019-01-14T19:19:33.550Z,4.90
2019-01-14T19:22:02.444Z,4.90
2019-01-14T19:24:30.218Z,4.90
2019-01-14T19:26:58.042Z,4.90
2019-01-14T19:29:25.840Z,4.90
2019-01-14T19:31:53.655Z,4.90
2019-01-14T19:34:21.403Z,5.00
2019-01-14T19:36:49.179Z,5.00
2019-01-14T19:39:16.924Z,5.00
2019-01-14T19:41:45.067Z,5.00
2019-01-14T19:44:13.183Z,5.10
2019-01-14T19:46:40.968Z,5.10
2019-01-14T19:49:09.091Z,5.00
2019-01-14T19:51:36.876Z,5.00
2019-01-14T19:54:05.052Z,5.00
2019-01-14T19:56:33.256Z,5.00
2019-01-14T19:59:01.088Z,5.00
2019-01-14T20:01:29.360Z,5.00
2019-01-14T20:03:57.162Z,5.00
2019-01-14T20:06:25.092Z,5.00
2019-01-14T20:08:52.862Z,5.00
2019-01-14T20:11:20.995Z,5.00
2019-01-14T20:13:48.902Z,5.00
2019-01-14T20:16:16.684Z,5.00
2019-01-14T20:18:44.863Z,5.00
2019-01-14T20:21:12.735Z,5.00
2019-01-14T20:23:40.884Z,5.00
2019-01-14T20:26:09.164Z,5.00
2019-01-14T20:28:37.059Z,5.00
2019-01-14T20:31:05.892Z,5.00
2019-01-14T20:33:33.797Z,5.00
2019-01-14T20:36:02.049Z,5.00
2019-01-14T20:38:30.226Z,5.00
2019-01-14T20:40:58.692Z,4.90
2019-01-14T20:43:26.526Z,4.90
2019-01-14T20:45:54.297Z,4.80
2019-01-14T20:48:22.054Z,4.80
2019-01-14T20:50:49.870Z,4.80
2019-01-14T20:53:17.690Z,4.80
2019-01-14T20:55:45.509Z,4.70
2019-01-14T20:58:13.359Z,4.50
2019-01-14T21:00:41.132Z,4.40
2019-01-14T21:03:10.041Z,4.30
2019-01-14T21:05:38.120Z,4.30
2019-01-14T21:08:05.951Z,4.20
2019-01-14T21:10:33.775Z,4.30
2019-01-14T21:13:01.873Z,4.30
2019-01-14T21:15:29.712Z,4.30
2019-01-14T21:17:57.492Z,4.30
2019-01-14T21:20:25.282Z,4.30
2019-01-14T21:22:54.423Z,4.40
2019-01-14T21:25:22.230Z,4.50
2019-01-14T21:27:49.987Z,4.60
2019-01-14T21:30:19.788Z,4.60
2019-01-14T21:32:47.688Z,4.60
2019-01-14T21:35:15.516Z,4.70
2019-01-14T21:37:43.730Z,4.70
2019-01-14T21:40:11.952Z,4.80
2019-01-14T21:42:39.755Z,4.60
2019-01-14T21:45:09.763Z,4.60
2019-01-14T21:47:38.019Z,4.60
2019-01-14T21:50:09.357Z,4.50
2019-01-14T21:52:37.847Z,4.30
2019-01-14T21:55:07.364Z,4.00
2019-01-14T21:57:35.151Z,3.70
2019-01-14T22:00:04.829Z,3.50
2019-01-14T22:02:32.482Z,3.30
2019-01-14T22:05:00.247Z,3.20
2019-01-14T22:07:27.907Z,3.10
2019-01-14T22:09:55.941Z,3.10
2019-01-14T22:12:23.896Z,3.10
2019-01-14T22:14:51.660Z,3.10
2019-01-14T22:17:19.270Z,3.00
2019-01-14T22:19:46.986Z,3.00
2019-01-14T22:22:14.644Z,3.10
2019-01-14T22:24:43.016Z,3.00
2019-01-14T22:27:11.096Z,2.90
2019-01-14T22:29:39.285Z,2.90
2019-01-14T22:32:07.040Z,2.80
2019-01-14T22:34:34.712Z,2.70
2019-01-14T22:37:02.888Z,2.80
2019-01-14T22:39:30.603Z,2.80
2019-01-14T22:41:58.266Z,2.80
2019-01-14T22:44:25.930Z,2.70
2019-01-14T22:46:54.507Z,2.60
2019-01-14T22:49:22.158Z,2.50
2019-01-14T22:51:49.813Z,2.40
2019-01-14T22:54:17.539Z,2.40
2019-01-14T22:56:45.173Z,2.10
2019-01-14T22:59:13.161Z,2.10
2019-01-14T23:01:45.980Z,2.00
2019-01-14T23:06:43.652Z,2.10
2019-01-14T23:09:11.722Z,2.00
2019-01-14T23:11:39.522Z,2.30
2019-01-14T23:14:08.069Z,2.60
2019-01-14T23:16:35.838Z,2.90
2019-01-14T23:19:04.178Z,3.10
2019-01-14T23:21:32.066Z,3.20
2019-01-14T23:24:00.124Z,3.20
2019-01-14T23:26:28.284Z,3.20
2019-01-14T23:28:56.112Z,3.10
2019-01-14T23:31:23.888Z,3.10
2019-01-14T23:33:52.014Z,3.20
2019-01-14T23:36:20.469Z,3.20
2019-01-14T23:38:49.220Z,3.20
2019-01-14T23:41:17.364Z,3.20
2019-01-14T23:43:45.141Z,3.20
2019-01-14T23:46:13.299Z,3.20
2019-01-14T23:48:41.533Z,3.20
2019-01-14T23:51:09.235Z,3.20
2019-01-14T23:53:37.024Z,3.20
2019-01-14T23:56:04.887Z,3.20
2019-01-14T23:58:33.085Z,3.10
